createdAt,value
2023-08-07T00:00:43.224Z,90.46
2023-08-07T00:01:14.063Z,90.46
2023-08-07T00:01:44.913Z,90.97
2023-08-07T00:02:15.696Z,91.07
2023-08-07T00:02:46.485Z,90.97
2023-08-07T00:03:17.215Z,91.07
2023-08-07T00:04:54.901Z,91.27
2023-08-07T00:07:17.189Z,91.58
2023-08-07T00:07:47.991Z,91.68
2023-08-07T00:10:50.028Z,91.68
2023-08-07T00:11:20.035Z,91.78
2023-08-07T00:11:50.797Z,91.27
2023-08-07T00:12:21.492Z,91.48
2023-08-07T00:12:52.166Z,91.48
2023-08-07T00:16:35.459Z,91.99
2023-08-07T00:17:06.253Z,91.99
2023-08-07T00:17:37.028Z,91.78
2023-08-07T00:18:07.787Z,91.99
2023-08-07T00:18:39.573Z,92.09
2023-08-07T00:19:08.780Z,92.19
2023-08-07T00:24:01.623Z,93.01
2023-08-07T00:24:32.332Z,93.15
2023-08-07T00:25:03.059Z,92.90
2023-08-07T00:27:01.358Z,92.84
2023-08-07T00:29:28.587Z,93.25
2023-08-07T00:29:59.224Z,93.15
2023-08-07T00:30:30.168Z,93.15
2023-08-07T00:31:00.987Z,92.94
2023-08-07T00:38:34.176Z,93.15
2023-08-07T00:39:04.825Z,93.25
2023-08-07T00:41:03.271Z,92.94
2023-08-07T00:41:34.116Z,93.15
2023-08-07T00:42:05.824Z,93.45
2023-08-07T00:42:35.133Z,93.15
2023-08-07T00:43:05.857Z,93.45
2023-08-07T00:43:36.537Z,93.55
2023-08-07T00:44:07.190Z,93.55
2023-08-07T00:46:57.206Z,93.66
2023-08-07T00:49:10.725Z,93.35
2023-08-07T00:49:41.509Z,93.25
2023-08-07T00:50:12.284Z,93.45
2023-08-07T00:52:13.240Z,93.76
2023-08-07T00:52:44.233Z,94.17
2023-08-07T00:53:14.412Z,94.47
2023-08-07T00:53:45.244Z,94.37
2023-08-07T00:54:16.236Z,94.17
2023-08-07T00:56:40.731Z,94.27
2023-08-07T00:57:10.105Z,94.07
2023-08-07T01:01:01.535Z,93.76
2023-08-07T01:03:14.314Z,94.21
2023-08-07T01:03:42.972Z,94.01
2023-08-07T01:04:14.143Z,94.01
2023-08-07T01:04:44.141Z,94.01
2023-08-07T01:08:05.383Z,93.76
2023-08-07T01:08:34.575Z,93.66
2023-08-07T01:09:05.247Z,93.76
2023-08-07T01:09:35.972Z,93.96
2023-08-07T01:10:06.664Z,93.96
2023-08-07T01:10:37.294Z,94.31
2023-08-07T01:11:09.569Z,94.17
2023-08-07T01:11:38.503Z,94.17
2023-08-07T01:12:09.181Z,93.96
2023-08-07T01:14:26.823Z,94.37
2023-08-07T01:14:57.463Z,94.27
2023-08-07T01:15:26.902Z,94.47
2023-08-07T01:17:39.832Z,94.92
2023-08-07T01:18:11.699Z,94.82
2023-08-07T01:18:41.693Z,95.03
2023-08-07T01:20:42.750Z,94.72
2023-08-07T01:22:54.596Z,95.03
2023-08-07T01:23:24.861Z,94.52
2023-08-07T01:25:21.272Z,94.62
2023-08-07T01:25:52.290Z,94.52
2023-08-07T01:26:54.275Z,94.72
2023-08-07T01:26:56.013Z,94.92
2023-08-07T01:29:18.869Z,95.23
2023-08-07T01:31:16.538Z,94.52
2023-08-07T01:33:26.906Z,94.82
2023-08-07T01:33:57.760Z,94.72
2023-08-07T01:34:29.459Z,94.92
2023-08-07T01:44:09.735Z,96.39
2023-08-07T01:44:39.965Z,95.94
2023-08-07T01:45:10.196Z,95.94
2023-08-07T01:47:44.724Z,95.43
2023-08-07T01:50:04.700Z,96.09
2023-08-07T01:50:45.879Z,96.04
2023-08-07T01:51:06.478Z,96.04
2023-08-07T01:57:33.239Z,95.78
2023-08-07T01:58:22.071Z,95.64
2023-08-07T02:00:21.093Z,95.64
2023-08-07T02:00:51.316Z,95.94
2023-08-07T02:01:31.588Z,95.84
2023-08-07T02:03:34.996Z,95.64
2023-08-07T02:05:41.197Z,95.74
2023-08-07T02:08:40.652Z,95.74
2023-08-07T02:09:09.366Z,95.53
2023-08-07T02:09:39.518Z,95.53
2023-08-07T02:13:21.251Z,95.64
2023-08-07T02:14:09.339Z,95.64
2023-08-07T02:16:17.382Z,95.23
2023-08-07T02:16:47.660Z,95.33
2023-08-07T02:19:53.676Z,94.11
2023-08-07T02:22:41.164Z,94.52
2023-08-07T02:24:50.079Z,94.01
2023-08-07T02:27:14.624Z,94.72
2023-08-07T02:27:45.432Z,94.42
2023-08-07T02:29:46.298Z,94.31
2023-08-07T02:30:17.079Z,94.11
2023-08-07T02:33:00.302Z,94.76
2023-08-07T02:34:58.932Z,95.07
2023-08-07T02:36:56.996Z,94.82
2023-08-07T02:39:21.699Z,95.13
2023-08-07T02:39:51.762Z,95.33
2023-08-07T02:40:22.483Z,95.23
2023-08-07T02:46:18.227Z,95.33
2023-08-07T02:46:48.236Z,95.43
2023-08-07T02:49:11.197Z,95.64
2023-08-07T02:52:21.780Z,95.64
2023-08-07T02:52:50.378Z,95.33
2023-08-07T02:55:14.961Z,95.33
2023-08-07T02:58:33.053Z,96.19
2023-08-07T02:59:02.578Z,95.89
2023-08-07T02:59:34.337Z,95.98
2023-08-07T03:00:03.730Z,96.39
2023-08-07T03:00:34.511Z,95.98
2023-08-07T03:48:59.481Z,95.17
2023-08-07T04:03:10.929Z,94.87
2023-08-07T04:14:32.357Z,95.37
2023-08-07T04:29:14.857Z,95.89
2023-08-07T04:29:44.384Z,95.98
2023-08-07T05:03:30.966Z,94.35
2023-08-07T05:05:27.294Z,94.46
2023-08-07T05:07:57.082Z,94.87
2023-08-07T05:11:17.932Z,93.80
2023-08-07T05:16:26.177Z,94.11
2023-08-07T05:16:56.735Z,94.01
2023-08-07T05:19:02.311Z,94.52
2023-08-07T05:21:44.522Z,95.48
2023-08-07T05:22:15.102Z,95.03
2023-08-07T05:29:48.307Z,93.80
2023-08-07T05:30:18.157Z,93.70
2023-08-07T05:32:17.386Z,92.79
2023-08-07T05:32:48.053Z,93.19
2023-08-07T05:33:18.596Z,92.89
2023-08-07T05:35:27.109Z,92.38
2023-08-07T05:37:56.593Z,93.29
2023-08-07T05:38:27.718Z,93.70
2023-08-07T05:40:49.124Z,92.79
2023-08-07T05:42:58.368Z,93.29
2023-08-07T05:44:09.499Z,93.40
2023-08-07T05:44:10.670Z,93.09
2023-08-07T05:44:41.229Z,92.38
2023-08-07T05:46:37.590Z,92.07
2023-08-07T05:47:08.998Z,91.62
2023-08-07T05:50:09.057Z,92.64
2023-08-07T05:52:17.905Z,91.93
2023-08-07T05:55:36.508Z,91.83
2023-08-07T05:57:32.901Z,91.83
2023-08-07T05:59:31.631Z,92.13
2023-08-07T06:00:37.896Z,91.31
2023-08-07T06:00:39.045Z,91.93
2023-08-07T06:02:36.895Z,91.31
2023-08-07T06:03:06.177Z,91.52
2023-08-07T06:03:36.765Z,91.52
2023-08-07T06:05:32.831Z,90.91
2023-08-07T06:07:31.003Z,91.72
2023-08-07T06:09:29.172Z,92.07
2023-08-07T06:57:41.641Z,95.17
2023-08-07T07:05:42.036Z,94.66
2023-08-07T07:08:49.452Z,95.42
2023-08-07T07:09:19.545Z,95.62
2023-08-07T07:12:58.981Z,95.12
2023-08-07T07:13:29.991Z,95.01
2023-08-07T07:13:59.309Z,95.58
2023-08-07T07:15:49.954Z,95.17
2023-08-07T07:18:28.531Z,95.58
2023-08-07T07:18:59.100Z,95.78
2023-08-07T07:19:48.579Z,95.78
2023-08-07T07:26:57.470Z,95.83
2023-08-07T07:27:27.896Z,95.93
2023-08-07T07:27:58.443Z,96.14
2023-08-07T07:28:29.113Z,96.03
2023-08-07T07:28:59.669Z,96.03
2023-08-07T07:39:20.310Z,95.37
2023-08-07T07:39:50.266Z,95.28
2023-08-07T07:42:41.777Z,95.37
2023-08-07T08:15:20.314Z,93.86
2023-08-07T08:15:51.336Z,93.96
2023-08-07T08:16:20.598Z,94.07
2023-08-07T08:16:51.150Z,93.86
2023-08-07T08:17:21.701Z,94.37
2023-08-07T08:17:52.338Z,94.57
2023-08-07T08:18:23.363Z,94.27
2023-08-07T08:18:53.528Z,93.45
2023-08-07T08:19:24.044Z,93.45
2023-08-07T08:30:38.267Z,93.41
2023-08-07T08:31:08.247Z,93.51
2023-08-07T08:31:39.515Z,93.71
2023-08-07T08:32:09.526Z,93.51
2023-08-07T08:32:40.233Z,93.71
2023-08-07T08:33:10.875Z,93.71
2023-08-07T08:33:41.396Z,94.32
2023-08-07T08:34:11.946Z,93.62
2023-08-07T08:34:42.525Z,93.51
2023-08-07T08:35:13.161Z,94.12
2023-08-07T08:35:43.777Z,94.02
2023-08-07T08:36:15.332Z,94.32
2023-08-07T08:36:44.679Z,94.02
2023-08-07T08:37:15.275Z,93.41
2023-08-07T08:37:45.973Z,93.71
2023-08-07T08:38:23.387Z,93.51
2023-08-07T08:41:59.589Z,94.17
2023-08-07T08:42:30.074Z,94.47
2023-08-07T08:43:00.263Z,94.78
2023-08-07T08:43:30.802Z,94.68
2023-08-07T12:04:02.966Z,57.48
2023-08-07T12:04:32.319Z,54.88
2023-08-07T12:05:02.187Z,53.57
2023-08-07T12:05:33.833Z,51.26
2023-08-07T12:06:03.203Z,52.07
2023-08-07T12:06:33.702Z,53.47
2023-08-07T12:07:04.428Z,50.36
2023-08-07T12:07:36.744Z,50.66
2023-08-07T12:08:06.021Z,51.97
2023-08-07T12:08:36.277Z,51.56
2023-08-07T12:09:06.718Z,51.06
2023-08-07T12:09:38.323Z,50.76
2023-08-07T12:10:08.683Z,52.04
2023-08-07T12:10:38.003Z,52.75
2023-08-07T12:11:09.153Z,52.24
2023-08-07T12:11:38.969Z,52.55
2023-08-07T12:12:09.675Z,52.01
2023-08-07T12:12:40.487Z,51.42
2023-08-07T12:13:10.871Z,52.52
2023-08-07T12:13:41.774Z,52.01
2023-08-07T12:14:13.056Z,51.21
2023-08-07T12:14:42.940Z,52.42
2023-08-07T12:15:13.624Z,50.81
2023-08-07T12:15:43.233Z,50.71
2023-08-07T12:16:14.007Z,50.89
2023-08-07T12:16:44.218Z,51.59
2023-08-07T12:17:14.999Z,51.59
2023-08-07T12:17:45.465Z,50.69
2023-08-07T12:18:17.064Z,51.89
2023-08-07T12:18:47.334Z,50.29
2023-08-07T12:19:17.418Z,50.87
2023-08-07T12:19:47.964Z,51.27
2023-08-07T12:20:18.597Z,50.76
2023-08-07T12:20:48.817Z,51.39
2023-08-07T12:21:19.290Z,50.11
2023-08-07T12:21:50.080Z,50.42
2023-08-07T12:22:20.963Z,51.32
2023-08-07T12:22:50.930Z,50.71
2023-08-07T12:23:21.662Z,52.92
2023-08-07T12:23:53.145Z,51.82
2023-08-07T12:24:23.286Z,51.89
2023-08-07T12:24:53.192Z,52.29
2023-08-07T12:25:23.239Z,53.87
2023-08-07T12:25:54.368Z,52.67
2023-08-07T12:26:24.648Z,50.16
2023-08-07T12:26:55.789Z,49.99
2023-08-07T12:28:59.698Z,49.69
2023-08-07T12:30:29.656Z,48.28
2023-08-07T12:32:22.379Z,50.07
2023-08-07T12:32:52.468Z,48.07
2023-08-07T12:33:23.888Z,48.57
2023-08-07T12:33:54.666Z,48.57
2023-08-07T12:35:41.384Z,46.54
2023-08-07T12:35:56.888Z,48.14
2023-08-07T12:36:27.761Z,47.14
2023-08-07T12:36:57.885Z,45.74
2023-08-07T12:37:37.599Z,45.34
2023-08-07T12:37:59.053Z,47.84
2023-08-07T12:38:29.526Z,46.94
2023-08-07T12:43:11.703Z,47.14
2023-08-07T12:43:41.904Z,46.74
2023-08-07T12:48:32.965Z,45.72
2023-08-07T12:49:04.189Z,44.51
2023-08-07T12:49:49.568Z,44.12
2023-08-07T12:50:04.567Z,44.12
2023-08-07T12:52:43.854Z,45.62
2023-08-07T12:53:17.562Z,47.22
2023-08-07T12:55:20.798Z,47.66
2023-08-07T12:57:15.906Z,48.22
2023-08-07T12:57:46.030Z,48.32
2023-08-07T12:58:16.746Z,46.92
2023-08-07T12:58:48.232Z,46.01
2023-08-07T12:59:18.091Z,45.79
2023-08-07T12:59:48.558Z,45.81
2023-08-07T13:00:31.077Z,46.19
2023-08-07T13:00:49.796Z,45.50
2023-08-07T13:01:19.820Z,46.22
2023-08-07T13:02:00.100Z,47.11
2023-08-07T13:02:21.553Z,46.89
2023-08-07T13:03:02.340Z,45.79
2023-08-07T13:03:22.357Z,46.59
2023-08-07T13:03:53.266Z,46.19
2023-08-07T13:05:50.204Z,49.57
2023-08-07T13:06:19.268Z,48.47
2023-08-07T13:06:50.549Z,47.67
2023-08-07T13:10:28.207Z,45.34
2023-08-07T13:12:33.986Z,45.68
2023-08-07T13:14:42.289Z,45.80
2023-08-07T13:15:12.215Z,46.00
2023-08-07T13:15:42.822Z,46.42
2023-08-07T13:16:26.064Z,46.93
2023-08-07T13:16:43.692Z,47.00
2023-08-07T13:17:26.241Z,47.61
2023-08-07T13:17:44.689Z,46.38
2023-08-07T13:18:27.536Z,47.69
2023-08-07T13:18:46.043Z,47.08
2023-08-07T13:19:27.728Z,47.28
2023-08-07T13:27:20.532Z,47.31
2023-08-07T13:29:57.287Z,44.42
2023-08-07T13:30:28.465Z,43.51
2023-08-07T13:30:57.866Z,44.32
2023-08-07T13:32:54.767Z,44.29
2023-08-07T13:33:33.399Z,45.09
2023-08-07T13:34:05.033Z,46.59
2023-08-07T13:34:25.494Z,47.49
2023-08-07T13:34:56.189Z,45.89
2023-08-07T13:35:26.766Z,44.39
2023-08-07T13:37:22.578Z,43.77
2023-08-07T13:37:53.432Z,44.87
2023-08-07T13:38:33.846Z,44.57
2023-08-07T13:38:54.873Z,45.55
2023-08-07T13:39:26.711Z,45.95
2023-08-07T13:40:07.424Z,44.15
2023-08-07T13:40:39.106Z,43.77
2023-08-07T13:40:56.805Z,45.57
2023-08-07T13:41:37.229Z,43.98
2023-08-07T13:42:09.929Z,43.87
2023-08-07T13:43:54.992Z,44.67
2023-08-07T13:44:25.542Z,43.87
2023-08-07T13:45:06.313Z,45.07
2023-08-07T13:45:25.971Z,43.67
2023-08-07T13:47:16.914Z,46.37
2023-08-07T13:47:47.032Z,49.07
2023-08-07T13:48:17.825Z,46.97
2023-08-07T13:48:48.569Z,45.05
2023-08-07T13:49:19.059Z,47.05
2023-08-07T13:49:49.558Z,45.25
2023-08-07T13:50:30.531Z,43.45
2023-08-07T13:52:16.672Z,46.62
2023-08-07T13:52:51.987Z,46.85
2023-08-07T13:53:25.798Z,43.45
2023-08-07T13:53:47.851Z,45.45
2023-08-07T13:54:17.784Z,44.25
2023-08-07T13:54:48.814Z,44.05
2023-08-07T13:55:18.620Z,44.75
2023-08-07T13:55:49.075Z,44.95
2023-08-07T13:56:19.671Z,45.75
2023-08-07T13:56:50.140Z,44.95
2023-08-07T13:57:20.635Z,43.95
2023-08-07T13:58:01.418Z,43.65
2023-08-07T13:58:21.781Z,44.35
2023-08-07T13:58:52.965Z,45.05
2023-08-07T13:59:22.751Z,45.25
2023-08-07T14:00:04.699Z,44.85
2023-08-07T14:00:23.791Z,44.65
2023-08-07T14:01:06.220Z,44.85
2023-08-07T14:01:35.823Z,45.37
2023-08-07T14:03:21.317Z,46.59
2023-08-07T14:03:51.431Z,46.51
2023-08-07T14:04:22.298Z,46.92
2023-08-07T14:06:19.011Z,48.29
2023-08-07T14:08:15.176Z,46.59
2023-08-07T14:08:45.304Z,46.50
2023-08-07T14:09:16.090Z,46.30
2023-08-07T14:09:46.573Z,46.50
2023-08-07T14:10:30.772Z,46.30
2023-08-07T14:10:47.984Z,46.89
2023-08-07T14:11:28.612Z,47.87
2023-08-07T14:11:48.494Z,45.97
2023-08-07T14:12:32.273Z,45.57
2023-08-07T14:12:49.865Z,45.97
2023-08-07T14:13:21.131Z,46.47
2023-08-07T14:14:00.542Z,46.07
2023-08-07T14:14:21.658Z,46.00
2023-08-07T14:14:52.296Z,46.87
2023-08-07T14:15:23.163Z,47.07
2023-08-07T14:15:52.985Z,46.57
2023-08-07T14:16:24.532Z,47.07
2023-08-07T14:18:19.684Z,47.67
2023-08-07T14:18:50.442Z,47.67
2023-08-07T14:20:21.271Z,47.57
2023-08-07T14:22:11.592Z,47.60
2023-08-07T14:22:40.981Z,48.69
2023-08-07T14:23:26.638Z,47.87
2023-08-07T14:23:42.256Z,47.19
2023-08-07T14:24:24.074Z,45.79
2023-08-07T14:24:43.881Z,46.30
2023-08-07T14:25:14.661Z,46.22
2023-08-07T14:25:55.260Z,46.62
2023-08-07T14:27:41.193Z,49.74
2023-08-07T14:28:22.235Z,49.07
2023-08-07T14:28:42.729Z,48.86
2023-08-07T14:29:13.473Z,48.99
2023-08-07T14:31:04.024Z,49.41
2023-08-07T14:32:54.383Z,50.63
2023-08-07T14:33:39.116Z,50.96
2023-08-07T14:33:55.316Z,51.46
2023-08-07T14:44:24.272Z,60.08
2023-08-07T14:44:32.498Z,60.18
2023-08-07T14:45:03.137Z,60.38
2023-08-07T14:45:34.861Z,61.71
2023-08-07T14:46:04.326Z,60.91
2023-08-07T14:46:34.936Z,62.52
2023-08-07T14:47:05.646Z,61.31
2023-08-07T14:47:36.154Z,61.58
2023-08-07T14:48:06.702Z,61.49
2023-08-07T14:48:37.313Z,61.69
2023-08-07T14:49:07.795Z,62.66
2023-08-07T14:49:38.268Z,62.66
2023-08-07T14:50:08.775Z,62.16
2023-08-07T14:50:39.317Z,61.22
2023-08-07T14:54:46.228Z,59.52
2023-08-07T14:55:16.760Z,59.29
2023-08-07T14:55:47.370Z,58.09
2023-08-07T14:56:18.003Z,57.96
2023-08-07T14:56:49.489Z,59.26
2023-08-07T14:57:19.291Z,58.56
2023-08-07T14:59:12.078Z,57.26
2023-08-07T14:59:40.904Z,56.96
2023-08-07T15:00:10.641Z,56.96
2023-08-07T15:02:01.021Z,57.83
2023-08-07T15:02:30.677Z,56.96
2023-08-07T15:03:01.186Z,56.52
2023-08-07T15:03:42.492Z,56.02
2023-08-07T15:08:25.684Z,56.35
2023-08-07T15:08:52.367Z,55.15
2023-08-07T15:09:21.590Z,55.85
2023-08-07T15:09:52.268Z,56.15
2023-08-07T15:13:44.157Z,57.94
2023-08-07T15:14:14.260Z,57.64
2023-08-07T15:14:44.872Z,57.17
2023-08-07T15:18:10.668Z,57.39
2023-08-07T15:18:41.646Z,57.29
2023-08-07T15:19:11.042Z,58.09
2023-08-07T15:19:40.218Z,58.00
2023-08-07T15:20:10.742Z,57.39
2023-08-07T15:20:41.263Z,58.40
2023-08-07T15:21:11.873Z,58.67
2023-08-07T15:21:42.383Z,58.37
2023-08-07T15:22:12.960Z,58.17
2023-08-07T15:22:43.668Z,57.57
2023-08-07T15:23:14.341Z,57.67
2023-08-07T15:23:44.878Z,58.57
2023-08-07T15:24:15.339Z,58.97
2023-08-07T15:24:45.911Z,57.77
2023-08-07T15:25:16.436Z,58.84
2023-08-07T15:25:46.957Z,59.75
2023-08-07T15:26:18.465Z,58.04
2023-08-07T15:26:47.731Z,59.25
2023-08-07T15:27:18.295Z,58.01
2023-08-07T15:27:48.851Z,59.72
2023-08-07T15:28:19.451Z,59.79
2023-08-07T15:28:50.171Z,57.68
2023-08-07T15:29:20.811Z,57.39
2023-08-07T15:29:51.349Z,55.88
2023-08-07T15:30:21.862Z,57.79
2023-08-07T15:30:52.574Z,57.28
2023-08-07T15:31:23.597Z,57.98
2023-08-07T15:31:53.669Z,58.01
2023-08-07T15:32:24.201Z,56.71
2023-08-07T15:32:54.760Z,57.21
2023-08-07T15:33:25.568Z,57.21
2023-08-07T15:33:56.124Z,57.01
2023-08-07T15:34:26.645Z,58.01
2023-08-07T15:34:57.140Z,59.12
2023-08-07T15:43:59.790Z,59.70
2023-08-07T15:44:15.621Z,59.41
2023-08-07T15:44:45.706Z,58.20
2023-08-07T15:45:16.592Z,59.41
2023-08-07T15:45:46.446Z,61.21
2023-08-07T15:46:17.055Z,60.81
2023-08-07T15:46:47.576Z,60.00
2023-08-07T15:47:18.108Z,59.30
2023-08-07T15:47:48.632Z,59.10
2023-08-07T15:48:19.120Z,60.81
2023-08-07T15:48:49.928Z,59.70
2023-08-07T15:49:20.519Z,59.50
2023-08-07T15:49:51.063Z,58.50
2023-08-07T15:50:22.588Z,58.37
2023-08-07T15:52:59.689Z,58.72
2023-08-07T15:53:30.370Z,58.42
2023-08-07T15:54:01.899Z,57.61
2023-08-07T15:54:32.253Z,57.64
2023-08-07T15:55:03.563Z,58.75
2023-08-07T15:55:32.437Z,58.27
2023-08-07T15:56:03.290Z,59.08
2023-08-07T15:56:33.302Z,59.67
2023-08-07T15:57:04.144Z,59.08
2023-08-07T15:59:38.890Z,57.84
2023-08-07T16:00:09.568Z,57.74
2023-08-07T16:00:41.214Z,57.81
2023-08-07T16:02:30.482Z,59.62
2023-08-07T16:03:01.251Z,58.22
2023-08-07T16:05:48.946Z,57.11
2023-08-07T16:06:19.899Z,57.11
2023-08-07T16:06:49.070Z,58.11
2023-08-07T16:07:19.677Z,59.14
2023-08-07T16:07:51.177Z,58.24
2023-08-07T16:08:21.520Z,58.84
2023-08-07T16:08:51.538Z,57.54
2023-08-07T16:09:22.153Z,57.54
2023-08-07T16:09:52.664Z,57.84
2023-08-07T16:10:24.336Z,56.03
2023-08-07T16:10:53.407Z,56.13
2023-08-07T16:11:23.858Z,56.03
2023-08-07T16:13:55.838Z,57.71
2023-08-07T16:14:22.973Z,56.41
2023-08-07T16:14:53.564Z,56.38
2023-08-07T16:15:25.193Z,56.58
2023-08-07T16:17:20.851Z,57.08
2023-08-07T16:17:50.941Z,56.28
2023-08-07T16:18:22.052Z,57.11
2023-08-07T16:18:52.650Z,56.21
2023-08-07T16:19:22.591Z,55.40
2023-08-07T16:19:53.254Z,54.90
2023-08-07T16:20:23.708Z,55.51
2023-08-07T16:23:05.076Z,56.10
2023-08-07T16:23:35.487Z,55.71
2023-08-07T16:24:05.516Z,56.01
2023-08-07T16:24:36.043Z,55.91
2023-08-07T16:25:06.581Z,56.30
2023-08-07T16:25:37.157Z,57.51
2023-08-07T16:26:07.659Z,57.41
2023-08-07T16:26:38.193Z,57.01
2023-08-07T16:27:24.835Z,56.84
2023-08-07T16:27:39.160Z,57.64
2023-08-07T16:30:27.081Z,57.34
2023-08-07T16:30:57.083Z,57.14
2023-08-07T16:31:28.034Z,56.63
2023-08-07T16:31:58.345Z,57.04
2023-08-07T16:32:28.563Z,57.84
2023-08-07T16:32:58.545Z,56.74
2023-08-07T16:33:29.027Z,58.14
2023-08-07T16:33:59.610Z,57.44
2023-08-07T16:34:30.065Z,57.34
2023-08-07T16:35:00.609Z,57.34
2023-08-07T16:35:31.164Z,58.14
2023-08-07T16:36:01.746Z,58.14
2023-08-07T16:36:33.140Z,57.51
2023-08-07T16:37:02.984Z,56.51
2023-08-07T16:37:33.630Z,57.11
2023-08-07T16:38:04.191Z,56.51
2023-08-07T16:40:01.144Z,57.01
2023-08-07T16:40:31.066Z,57.01
2023-08-07T16:41:03.130Z,56.48
2023-08-07T16:41:32.588Z,56.98
2023-08-07T16:42:03.097Z,56.71
2023-08-07T16:42:34.790Z,56.81
2023-08-07T16:43:04.028Z,56.61
2023-08-07T16:43:35.565Z,57.14
2023-08-07T16:44:04.974Z,57.24
2023-08-07T16:44:35.687Z,58.14
2023-08-07T16:45:06.364Z,58.01
2023-08-07T16:45:36.967Z,57.44
2023-08-07T16:46:07.598Z,57.84
2023-08-07T16:46:38.894Z,57.04
2023-08-07T16:47:09.185Z,57.37
2023-08-07T16:57:09.519Z,58.80
2023-08-07T16:57:43.372Z,57.29
2023-08-07T16:58:05.182Z,58.20
2023-08-07T16:58:51.524Z,58.22
2023-08-07T16:59:05.850Z,57.82
2023-08-07T16:59:36.356Z,59.03
2023-08-07T17:00:06.280Z,57.32
2023-08-07T17:00:38.171Z,57.22
2023-08-07T17:01:08.639Z,59.50
2023-08-07T17:01:38.638Z,58.53
2023-08-07T17:02:08.940Z,57.22
2023-08-07T17:02:39.305Z,58.02
2023-08-07T17:03:09.625Z,57.42
2023-08-07T17:03:39.838Z,57.52
2023-08-07T17:04:10.168Z,56.51
2023-08-07T17:04:41.456Z,56.31
2023-08-07T17:05:10.575Z,56.21
2023-08-07T17:05:42.827Z,56.71
2023-08-07T17:06:12.006Z,56.21
2023-08-07T17:06:42.160Z,56.71
2023-08-07T17:07:14.181Z,56.51
2023-08-07T17:07:43.500Z,57.02
2023-08-07T17:08:14.208Z,56.62
2023-08-07T17:08:44.227Z,55.71
2023-08-07T17:13:26.425Z,58.73
2023-08-07T17:13:57.813Z,58.73
2023-08-07T17:14:26.987Z,58.83
2023-08-07T17:14:57.392Z,57.92
2023-08-07T17:26:45.932Z,60.16
2023-08-07T17:27:16.032Z,61.37
2023-08-07T17:27:46.880Z,61.07
2023-08-07T17:28:16.761Z,61.37
2023-08-07T17:28:47.242Z,60.57
2023-08-07T17:29:17.756Z,60.19
2023-08-07T17:29:48.199Z,60.39
2023-08-07T17:30:18.833Z,60.19
2023-08-07T17:30:49.421Z,60.49
2023-08-07T17:34:07.937Z,58.68
2023-08-07T17:34:38.064Z,59.08
2023-08-07T17:35:08.753Z,59.19
2023-08-07T17:35:39.742Z,59.89
2023-08-07T17:36:09.593Z,59.89
2023-08-07T17:36:41.134Z,59.08
2023-08-07T17:37:10.874Z,59.79
2023-08-07T17:37:41.339Z,59.08
2023-08-07T17:38:11.959Z,60.29
2023-08-07T17:38:42.542Z,59.82
2023-08-07T17:39:12.961Z,59.39
2023-08-07T17:39:43.408Z,59.52
2023-08-07T17:40:14.876Z,60.19
2023-08-07T17:40:44.639Z,59.31
2023-08-07T17:41:15.164Z,59.19
2023-08-07T17:43:11.561Z,58.58
2023-08-07T17:43:42.121Z,58.68
2023-08-07T17:44:12.685Z,59.59
2023-08-07T17:44:43.513Z,59.08
2023-08-07T17:45:16.069Z,58.98
2023-08-07T17:45:44.719Z,58.98
2023-08-07T17:46:15.253Z,58.68
2023-08-07T17:46:45.713Z,59.08
2023-08-07T17:47:16.221Z,59.79
2023-08-07T17:50:02.696Z,59.39
2023-08-07T17:50:32.621Z,58.78
2023-08-07T17:51:04.854Z,58.88
2023-08-07T17:51:33.534Z,59.79
2023-08-07T17:52:04.153Z,59.52
2023-08-07T17:52:34.654Z,59.82
2023-08-07T17:53:05.086Z,60.52
2023-08-07T17:55:01.911Z,59.42
2023-08-07T17:55:31.880Z,59.82
2023-08-07T17:56:02.725Z,59.62
2023-08-07T17:56:46.601Z,59.62
2023-08-07T17:57:04.235Z,59.82
2023-08-07T17:59:00.316Z,61.13
2023-08-07T17:59:31.063Z,59.62
2023-08-07T18:00:01.626Z,60.72
2023-08-07T18:00:32.164Z,60.25
2023-08-07T18:01:03.842Z,60.55
2023-08-07T18:01:33.397Z,60.35
2023-08-07T18:03:29.944Z,61.76
2023-08-07T18:03:59.983Z,61.56
2023-08-07T18:05:59.938Z,59.64
2023-08-07T18:06:30.339Z,59.84
2023-08-07T18:07:00.668Z,59.24
2023-08-07T18:07:30.716Z,59.55
2023-08-07T18:08:01.164Z,59.44
2023-08-07T18:08:32.695Z,59.34
2023-08-07T18:09:02.514Z,59.55
2023-08-07T18:09:32.968Z,59.64
2023-08-07T18:10:03.525Z,59.84
2023-08-07T18:10:34.111Z,60.15
2023-08-07T18:11:04.608Z,60.05
2023-08-07T18:11:35.208Z,60.12
2023-08-07T18:12:05.832Z,60.35
2023-08-07T18:12:36.491Z,60.02
2023-08-07T18:13:07.240Z,60.22
2023-08-07T18:13:37.859Z,60.22
2023-08-07T18:14:08.654Z,60.25
2023-08-07T18:14:39.348Z,60.15
2023-08-07T18:15:09.950Z,60.35
2023-08-07T18:15:40.441Z,61.36
2023-08-07T18:16:10.972Z,59.82
2023-08-07T18:16:41.807Z,59.82
2023-08-07T18:17:12.025Z,59.72
2023-08-07T18:17:42.076Z,59.42
2023-08-07T18:18:12.687Z,59.22
2023-08-07T18:18:43.342Z,59.11
2023-08-07T18:19:13.838Z,59.11
2023-08-07T18:19:44.457Z,59.42
2023-08-07T18:20:15.113Z,58.71
2023-08-07T18:20:45.601Z,59.31
2023-08-07T18:22:42.221Z,59.31
2023-08-07T18:23:13.071Z,59.11
2023-08-07T18:23:43.336Z,59.31
2023-08-07T18:24:12.537Z,60.52
2023-08-07T18:24:42.977Z,60.52
2023-08-07T18:25:13.542Z,60.12
2023-08-07T18:25:45.482Z,60.12
2023-08-07T18:27:55.557Z,61.36
2023-08-07T18:28:27.041Z,61.05
2023-08-07T18:28:56.282Z,60.55
2023-08-07T18:29:26.839Z,60.35
2023-08-07T18:29:57.257Z,59.95
2023-08-07T18:30:27.739Z,60.65
2023-08-07T18:30:58.240Z,60.35
2023-08-07T18:31:28.773Z,60.35
2023-08-07T18:31:59.307Z,60.25
2023-08-07T18:32:29.787Z,60.75
2023-08-07T18:33:00.265Z,60.25
2023-08-07T18:33:30.710Z,60.15
2023-08-07T18:34:01.189Z,59.95
2023-08-07T18:34:31.676Z,59.64
2023-08-07T18:35:02.167Z,59.95
2023-08-07T18:35:32.563Z,60.15
2023-08-07T18:36:03.099Z,60.48
2023-08-07T18:36:33.619Z,60.58
2023-08-07T18:37:22.189Z,60.48
2023-08-07T18:37:35.110Z,60.17
2023-08-07T18:38:06.622Z,60.17
2023-08-07T18:38:36.428Z,60.78
2023-08-07T18:39:06.876Z,60.58
2023-08-07T18:39:37.503Z,60.78
2023-08-07T18:40:08.155Z,61.08
2023-08-07T18:42:04.636Z,61.08
2023-08-07T18:42:34.584Z,61.39
2023-08-07T18:43:05.321Z,61.39
2023-08-07T18:43:36.265Z,61.79
2023-08-07T18:44:06.124Z,61.29
2023-08-07T18:44:36.599Z,62.22
2023-08-07T18:45:07.026Z,62.02
2023-08-07T18:45:37.505Z,61.92
2023-08-07T18:46:08.042Z,62.22
2023-08-07T18:46:38.654Z,62.43
2023-08-07T18:47:09.118Z,62.32
2023-08-07T18:47:39.616Z,63.03
2023-08-07T18:48:10.150Z,62.22
2023-08-07T18:48:40.703Z,62.45
2023-08-07T18:49:11.157Z,62.45
2023-08-07T18:49:41.693Z,62.55
2023-08-07T18:50:12.244Z,62.65
2023-08-07T18:50:42.658Z,62.25
2023-08-07T18:51:13.094Z,62.96
2023-08-07T18:51:44.612Z,63.16
2023-08-07T18:52:14.448Z,63.16
2023-08-07T18:52:44.980Z,63.46
2023-08-07T18:53:15.476Z,63.36
2023-08-07T18:53:45.987Z,63.16
2023-08-07T18:54:16.486Z,64.07
2023-08-07T18:54:46.976Z,63.67
2023-08-07T18:55:17.478Z,63.16
2023-08-07T18:55:47.895Z,63.87
2023-08-07T18:56:18.302Z,63.46
2023-08-07T18:56:48.780Z,63.29
2023-08-07T18:57:19.654Z,63.59
2023-08-07T18:57:49.469Z,63.29
2023-08-07T18:58:19.902Z,62.88
2023-08-07T18:58:50.341Z,63.09
2023-08-07T18:59:21.632Z,62.48
2023-08-07T18:59:51.435Z,62.59
2023-08-07T19:00:21.878Z,62.99
2023-08-07T19:00:52.296Z,62.59
2023-08-07T19:01:22.763Z,63.09
2023-08-07T19:01:53.262Z,63.19
2023-08-07T19:02:23.804Z,63.49
2023-08-07T19:02:54.285Z,63.29
2023-08-07T19:03:24.814Z,63.70
2023-08-07T19:03:55.332Z,63.90
2023-08-07T19:04:25.725Z,63.49
2023-08-07T19:04:56.160Z,63.70
2023-08-07T19:05:26.621Z,63.79
2023-08-07T19:05:57.068Z,63.90
2023-08-07T19:06:27.470Z,63.52
2023-08-07T19:06:59.139Z,63.93
2023-08-07T19:07:28.357Z,64.64
2023-08-07T19:07:58.978Z,64.13
2023-08-07T19:08:29.475Z,63.93
2023-08-07T19:08:59.908Z,64.53
2023-08-07T19:09:30.366Z,64.23
2023-08-07T19:10:00.753Z,63.82
2023-08-07T19:10:31.267Z,64.94
2023-08-07T19:11:01.934Z,64.43
2023-08-07T19:11:32.775Z,64.13
2023-08-07T19:12:02.674Z,63.82
2023-08-07T19:12:33.048Z,63.82
2023-08-07T19:13:03.570Z,63.93
2023-08-07T19:13:34.187Z,64.43
2023-08-07T19:14:04.769Z,64.53
2023-08-07T19:14:47.115Z,64.53
2023-08-07T19:15:06.065Z,65.24
2023-08-07T19:15:37.065Z,65.54
2023-08-07T19:16:06.886Z,64.73